createdAt,value
2022-09-14T00:00:45.252Z,4.73
2022-09-14T00:03:48.046Z,4.40
2022-09-14T00:06:51.737Z,5.00
2022-09-14T00:09:55.837Z,4.33
2022-09-14T00:13:00.635Z,4.27
2022-09-14T00:16:05.613Z,5.37
2022-09-14T00:19:10.589Z,5.80
2022-09-14T00:22:13.823Z,5.53
2022-09-14T00:25:18.518Z,5.97
2022-09-14T00:28:21.209Z,5.60
2022-09-14T00:31:25.909Z,5.57
2022-09-14T00:34:29.397Z,6.23
2022-09-14T00:37:32.194Z,6.17
2022-09-14T00:40:37.058Z,6.50
2022-09-14T00:43:54.333Z,5.50
2022-09-14T00:46:59.449Z,5.50
2022-09-14T00:50:04.961Z,6.20
2022-09-14T00:53:07.639Z,6.30
2022-09-14T00:56:11.960Z,6.10
2022-09-14T00:59:19.949Z,6.73
2022-09-14T01:02:25.379Z,6.13
2022-09-14T01:05:39.701Z,6.33
2022-09-14T01:08:58.418Z,4.90
2022-09-14T01:12:13.281Z,3.30
2022-09-14T01:15:27.219Z,6.17
2022-09-14T01:18:35.834Z,6.90
2022-09-14T01:21:43.437Z,5.73
2022-09-14T01:24:49.772Z,5.60
2022-09-14T01:27:56.426Z,6.30
2022-09-14T01:31:02.428Z,6.90
2022-09-14T01:34:10.280Z,6.90
2022-09-14T01:37:18.959Z,6.93
2022-09-14T01:40:25.861Z,7.90
2022-09-14T01:43:36.664Z,7.57
2022-09-14T01:46:44.921Z,7.43
2022-09-14T01:49:52.873Z,7.47
2022-09-14T01:52:59.957Z,7.83
2022-09-14T01:56:08.747Z,8.50
2022-09-14T01:59:18.143Z,8.37
2022-09-14T02:02:25.077Z,8.60
2022-09-14T02:05:35.665Z,8.17
2022-09-14T02:08:38.782Z,7.73
2022-09-14T02:11:42.152Z,7.23
2022-09-14T02:14:48.346Z,7.63
2022-09-14T02:17:51.071Z,8.00
2022-09-14T02:20:59.624Z,7.87
2022-09-14T02:24:03.644Z,8.50
2022-09-14T02:27:08.213Z,9.20
2022-09-14T02:30:13.641Z,8.57
2022-09-14T02:33:22.296Z,8.87
2022-09-14T02:36:33.152Z,9.87
2022-09-14T02:39:45.080Z,8.77
2022-09-14T02:42:57.955Z,8.27
2022-09-14T02:46:10.645Z,8.53
2022-09-14T02:49:22.007Z,9.03
2022-09-14T02:52:32.834Z,8.83
2022-09-14T02:55:38.520Z,8.80
2022-09-14T02:58:43.799Z,9.43
2022-09-14T03:01:47.966Z,9.70
2022-09-14T03:04:50.690Z,10.63
2022-09-14T03:07:53.450Z,9.67
2022-09-14T03:10:56.206Z,10.70
2022-09-14T03:13:58.860Z,9.57
2022-09-14T03:17:03.646Z,8.53
2022-09-14T03:20:07.031Z,8.33
2022-09-14T03:23:11.530Z,8.63
2022-09-14T03:26:16.242Z,7.90
2022-09-14T03:29:19.647Z,6.47
2022-09-14T03:32:24.130Z,7.10
2022-09-14T03:35:30.648Z,7.97
2022-09-14T03:38:33.653Z,9.47
2022-09-14T03:41:36.328Z,9.67
2022-09-14T03:44:39.107Z,9.00
2022-09-14T03:47:43.892Z,7.63
2022-09-14T03:50:47.035Z,7.57
2022-09-14T03:53:49.791Z,5.50
2022-09-14T03:56:53.680Z,6.07
2022-09-14T03:59:56.359Z,5.93
2022-09-14T04:03:03.736Z,4.60
2022-09-14T04:06:07.971Z,5.70
2022-09-14T04:09:11.080Z,6.27
2022-09-14T04:12:13.781Z,8.03
2022-09-14T04:15:16.886Z,6.87
2022-09-14T04:18:20.951Z,6.83
2022-09-14T04:21:26.793Z,6.30
2022-09-14T04:24:30.584Z,6.37
2022-09-14T04:27:34.098Z,7.10
2022-09-14T04:30:39.041Z,7.43
2022-09-14T04:33:44.837Z,8.50
2022-09-14T04:36:47.566Z,8.30
2022-09-14T04:39:50.732Z,7.57
2022-09-14T04:42:53.671Z,7.47
2022-09-14T04:46:03.589Z,7.70
2022-09-14T04:49:08.388Z,7.63
2022-09-14T04:52:11.645Z,7.43
2022-09-14T04:55:14.435Z,9.43
2022-09-14T04:58:17.661Z,9.60
2022-09-14T05:01:22.112Z,9.47
2022-09-14T05:04:26.524Z,8.67
2022-09-14T05:07:29.824Z,8.30
2022-09-14T05:10:32.522Z,7.87
2022-09-14T05:13:36.218Z,8.67
2022-09-14T05:16:41.085Z,9.30
2022-09-14T05:19:45.152Z,9.87
2022-09-14T05:22:50.748Z,9.17
2022-09-14T05:25:54.408Z,11.50
2022-09-14T05:28:58.612Z,9.57
2022-09-14T05:32:01.565Z,9.23
2022-09-14T05:35:06.733Z,9.17
2022-09-14T05:38:09.421Z,9.73
2022-09-14T05:41:14.747Z,8.53
2022-09-14T05:44:17.430Z,8.60
2022-09-14T05:47:21.533Z,8.40
2022-09-14T05:50:25.619Z,9.43
2022-09-14T05:53:29.630Z,9.30
2022-09-14T05:56:32.666Z,9.63
2022-09-14T05:59:36.068Z,10.13
2022-09-14T06:02:38.774Z,9.27
2022-09-14T06:05:43.360Z,10.80
2022-09-14T06:08:46.583Z,10.53
2022-09-14T06:11:49.910Z,10.37
2022-09-14T06:14:52.549Z,10.73
2022-09-14T06:17:55.367Z,10.57
2022-09-14T06:20:59.437Z,11.00
2022-09-14T06:24:02.425Z,10.50
2022-09-14T06:27:06.774Z,11.27
2022-09-14T06:30:10.687Z,12.73
2022-09-14T06:33:13.741Z,12.50
2022-09-14T06:36:19.754Z,11.23
2022-09-14T06:39:22.578Z,10.30
2022-09-14T06:42:25.358Z,10.33
2022-09-14T06:45:28.221Z,10.17
2022-09-14T06:48:33.961Z,8.93
2022-09-14T06:51:39.683Z,9.43
2022-09-14T06:54:42.318Z,9.53
2022-09-14T06:57:45.151Z,9.33
2022-09-14T07:00:47.856Z,9.50
2022-09-14T07:03:52.402Z,9.70
2022-09-14T07:06:56.438Z,11.03
2022-09-14T07:09:59.146Z,10.17
2022-09-14T07:13:02.173Z,10.37
2022-09-14T07:16:05.484Z,11.17
2022-09-14T07:19:11.141Z,10.77
2022-09-14T07:22:15.171Z,11.33
2022-09-14T07:25:18.119Z,12.37
2022-09-14T07:28:20.749Z,11.70
2022-09-14T07:31:25.945Z,10.37
2022-09-14T07:34:28.637Z,10.43
2022-09-14T07:37:32.787Z,8.10
2022-09-14T07:40:35.424Z,7.97
2022-09-14T07:43:38.248Z,7.87
2022-09-14T07:46:43.200Z,7.90
2022-09-14T07:49:46.036Z,9.13
2022-09-14T07:52:52.052Z,13.10
2022-09-14T07:55:54.890Z,10.17
2022-09-14T07:59:23.773Z,7.80
2022-09-14T08:02:24.522Z,6.97
2022-09-14T08:05:27.794Z,7.30
2022-09-14T08:08:33.480Z,7.60
2022-09-14T08:11:36.179Z,6.87
2022-09-14T08:14:39.106Z,7.30
2022-09-14T08:17:41.732Z,6.47
2022-09-14T08:20:44.523Z,6.93
2022-09-14T08:23:48.571Z,7.60
2022-09-14T08:26:51.495Z,6.67
2022-09-14T08:29:54.444Z,6.37
2022-09-14T08:33:01.269Z,5.33
2022-09-14T08:36:05.813Z,5.20
2022-09-14T08:39:11.432Z,4.40
2022-09-14T08:42:19.408Z,4.93
2022-09-14T08:45:24.385Z,5.10
2022-09-14T08:48:32.499Z,5.43
2022-09-14T08:51:36.314Z,5.70
2022-09-14T08:54:40.944Z,4.90
2022-09-14T08:57:46.806Z,5.00
2022-09-14T09:00:54.957Z,5.70
2022-09-14T09:04:24.544Z,4.33
2022-09-14T09:07:37.028Z,4.87
2022-09-14T09:10:41.959Z,4.57
2022-09-14T09:13:45.965Z,4.97
2022-09-14T09:16:53.973Z,4.40
2022-09-14T09:20:05.924Z,4.27
2022-09-14T09:23:14.263Z,3.57
2022-09-14T09:26:25.725Z,3.60
2022-09-14T09:29:28.561Z,3.63
2022-09-14T09:32:31.397Z,3.77
2022-09-14T09:35:34.850Z,4.17
2022-09-14T09:38:37.520Z,4.20
2022-09-14T09:41:47.529Z,4.07
2022-09-14T09:45:02.590Z,3.87
2022-09-14T09:48:11.182Z,4.33
2022-09-14T09:51:15.849Z,4.73
2022-09-14T09:54:25.567Z,3.97
2022-09-14T09:57:35.202Z,4.50
2022-09-14T10:00:38.337Z,4.23
2022-09-14T10:03:42.079Z,4.73
2022-09-14T10:06:46.636Z,4.50
2022-09-14T10:09:59.940Z,4.87
2022-09-14T10:13:07.126Z,4.77
2022-09-14T10:16:16.426Z,4.17
2022-09-14T10:19:24.779Z,5.00
2022-09-14T10:22:29.592Z,5.37
2022-09-14T10:25:32.610Z,4.97
2022-09-14T10:28:37.199Z,5.27
2022-09-14T10:31:42.381Z,5.00
2022-09-14T10:34:45.850Z,5.33
2022-09-14T10:38:08.639Z,5.20
2022-09-14T10:41:22.676Z,5.07
2022-09-14T10:44:45.963Z,4.80
2022-09-14T10:48:07.301Z,4.80
2022-09-14T10:51:29.474Z,4.60
2022-09-14T10:55:04.190Z,3.83
2022-09-14T10:58:31.402Z,4.57
2022-09-14T11:02:07.062Z,4.87
2022-09-14T11:05:16.192Z,5.07
2022-09-14T11:08:25.670Z,4.20
2022-09-14T11:11:44.238Z,4.47
2022-09-14T11:14:59.455Z,4.97
2022-09-14T11:18:18.456Z,4.80
2022-09-14T11:21:31.848Z,5.33
2022-09-14T11:24:39.240Z,5.60
2022-09-14T11:27:44.823Z,5.40
2022-09-14T11:30:54.386Z,5.10
2022-09-14T11:34:04.959Z,4.70
2022-09-14T11:37:11.864Z,5.63
2022-09-14T11:40:24.407Z,5.80
2022-09-14T11:43:32.025Z,4.97
2022-09-14T11:46:38.962Z,5.43
2022-09-14T11:49:54.996Z,5.43
2022-09-14T11:53:04.908Z,5.83
2022-09-14T11:56:23.730Z,5.40
2022-09-14T11:59:48.488Z,5.67
2022-09-14T12:03:16.091Z,5.43
2022-09-14T12:06:45.782Z,5.47
2022-09-14T12:09:50.308Z,7.67
2022-09-14T12:12:55.415Z,5.80
2022-09-14T12:16:06.999Z,5.47
2022-09-14T12:19:18.274Z,6.13
2022-09-14T12:22:34.933Z,4.87
2022-09-14T12:25:39.874Z,6.40
2022-09-14T12:28:50.755Z,6.10
2022-09-14T12:32:19.505Z,5.53
2022-09-14T12:35:47.677Z,5.97
2022-09-14T12:39:23.628Z,5.23
2022-09-14T12:42:29.936Z,5.90
2022-09-14T12:45:51.235Z,6.00
2022-09-14T12:49:00.623Z,5.77
2022-09-14T12:52:31.877Z,5.90
2022-09-14T12:55:46.215Z,6.33
2022-09-14T12:59:03.951Z,5.90
2022-09-14T13:02:39.498Z,6.10
2022-09-14T13:05:46.084Z,6.37
2022-09-14T13:08:51.478Z,6.20
2022-09-14T13:11:59.353Z,6.80
2022-09-14T13:15:07.149Z,6.20
2022-09-14T13:18:31.445Z,7.40
2022-09-14T13:21:34.436Z,7.60
2022-09-14T13:24:43.783Z,7.40
2022-09-14T13:27:50.272Z,7.63
2022-09-14T13:30:58.277Z,7.70
2022-09-14T13:34:02.931Z,8.67
2022-09-14T13:37:06.222Z,8.60
2022-09-14T13:40:10.388Z,8.80
2022-09-14T13:43:16.154Z,9.07
2022-09-14T13:46:20.579Z,9.67
2022-09-14T13:49:23.953Z,9.43
2022-09-14T13:52:57.492Z,9.60
2022-09-14T13:55:58.156Z,9.73
2022-09-14T13:59:20.606Z,9.97
2022-09-14T14:02:24.160Z,9.77
2022-09-14T14:05:29.161Z,9.77
2022-09-14T14:08:36.461Z,9.93
2022-09-14T14:11:46.890Z,13.43
2022-09-14T14:14:56.211Z,10.83
2022-09-14T14:17:58.957Z,9.60
2022-09-14T14:21:26.304Z,10.50
2022-09-14T14:24:35.169Z,11.90
2022-09-14T14:27:46.142Z,12.03
2022-09-14T14:30:50.647Z,13.27
2022-09-14T14:33:55.543Z,10.60
2022-09-14T14:36:58.249Z,13.67
2022-09-14T14:40:01.071Z,8.47
2022-09-14T14:43:05.605Z,11.97
2022-09-14T14:46:11.037Z,13.33
2022-09-14T14:49:14.714Z,14.57
2022-09-14T14:52:17.375Z,13.93
2022-09-14T14:55:21.144Z,9.30
2022-09-14T14:58:24.587Z,9.40
2022-09-14T15:01:28.969Z,8.50
2022-09-14T15:04:31.818Z,6.33
2022-09-14T15:07:37.595Z,5.17
2022-09-14T15:10:42.268Z,4.73
2022-09-14T15:13:44.972Z,3.50
2022-09-14T15:16:49.956Z,3.57
2022-09-14T15:19:53.713Z,3.43
2022-09-14T15:22:56.964Z,3.70
2022-09-14T15:25:59.828Z,3.80
2022-09-14T15:29:02.851Z,3.40
2022-09-14T15:32:07.269Z,3.20
2022-09-14T15:35:13.687Z,2.80
2022-09-14T15:38:16.422Z,2.73
2022-09-14T15:41:19.245Z,2.90
2022-09-14T15:44:21.959Z,2.70
2022-09-14T15:47:25.975Z,3.00
2022-09-14T15:50:29.541Z,2.83
2022-09-14T15:53:32.329Z,2.80
2022-09-14T15:56:35.050Z,2.77
2022-09-14T15:59:37.884Z,2.10
2022-09-14T16:02:42.011Z,2.23
2022-09-14T16:05:44.671Z,1.83
2022-09-14T16:08:47.363Z,2.20
2022-09-14T16:11:50.961Z,1.80
2022-09-14T16:14:54.585Z,1.93
2022-09-14T16:17:58.668Z,3.40
2022-09-14T16:21:07.129Z,1.83
2022-09-14T16:24:11.987Z,1.60
2022-09-14T16:27:14.664Z,1.80
2022-09-14T16:30:17.653Z,2.00
2022-09-14T16:33:21.916Z,2.13
2022-09-14T16:36:27.038Z,1.90
2022-09-14T16:39:31.618Z,1.63
2022-09-14T16:42:34.269Z,1.70
2022-09-14T16:45:37.111Z,2.10
2022-09-14T16:48:43.582Z,1.47
2022-09-14T16:51:47.344Z,1.70
2022-09-14T16:54:54.115Z,1.70
2022-09-14T16:57:58.974Z,1.67
2022-09-14T17:01:06.879Z,1.80
2022-09-14T17:04:13.900Z,1.70
2022-09-14T17:07:16.760Z,1.63
2022-09-14T17:10:19.515Z,1.67
2022-09-14T17:13:22.275Z,1.93
2022-09-14T17:16:27.072Z,1.80
2022-09-14T17:19:31.243Z,1.83
2022-09-14T17:22:34.294Z,2.07
2022-09-14T17:25:37.451Z,1.90
2022-09-14T17:28:41.102Z,1.90
2022-09-14T17:31:45.380Z,2.10
2022-09-14T17:34:49.650Z,2.10
2022-09-14T17:37:52.377Z,2.50
2022-09-14T17:41:02.000Z,2.83
2022-09-14T17:44:06.669Z,2.77
2022-09-14T17:47:09.412Z,2.50
2022-09-14T17:50:13.799Z,2.77
2022-09-14T17:53:17.198Z,2.87
2022-09-14T17:56:22.122Z,2.93
2022-09-14T17:59:24.840Z,2.93
2022-09-14T18:02:27.534Z,3.37
2022-09-14T18:05:31.580Z,3.43
2022-09-14T18:08:34.317Z,3.13
2022-09-14T18:11:37.476Z,3.20
2022-09-14T18:14:40.657Z,3.43
2022-09-14T18:17:45.665Z,3.27
2022-09-14T18:20:49.675Z,3.70
2022-09-14T18:23:53.673Z,3.67
2022-09-14T18:26:56.871Z,3.40
2022-09-14T18:30:00.066Z,3.20
2022-09-14T18:33:03.004Z,3.60
2022-09-14T18:36:08.000Z,3.50
2022-09-14T18:39:11.525Z,3.13
2022-09-14T18:42:14.270Z,3.33
2022-09-14T18:45:17.165Z,3.60
2022-09-14T18:48:19.962Z,2.77
2022-09-14T18:51:24.447Z,3.50
2022-09-14T18:54:27.944Z,3.33
2022-09-14T18:57:30.636Z,3.00
2022-09-14T19:00:33.673Z,3.30
2022-09-14T19:03:37.379Z,3.00
2022-09-14T19:06:42.746Z,2.93
2022-09-14T19:09:46.919Z,3.23
2022-09-14T19:12:49.842Z,3.20
2022-09-14T19:15:52.539Z,3.37
2022-09-14T19:18:56.017Z,3.30
2022-09-14T19:22:00.331Z,3.00
2022-09-14T19:25:03.092Z,3.57
2022-09-14T19:28:06.388Z,3.63
2022-09-14T19:31:11.096Z,3.20
2022-09-14T19:34:13.745Z,3.43
2022-09-14T19:37:17.761Z,2.60
2022-09-14T19:40:20.715Z,2.40
2022-09-14T19:43:23.687Z,2.90
2022-09-14T19:46:26.726Z,2.43
2022-09-14T19:49:29.643Z,2.77
2022-09-14T19:52:33.673Z,2.43
2022-09-14T19:55:36.601Z,2.40
2022-09-14T19:58:41.347Z,2.63
2022-09-14T20:01:44.836Z,2.90
2022-09-14T20:04:47.642Z,2.60
2022-09-14T20:07:51.685Z,3.30
2022-09-14T20:10:54.616Z,3.40
2022-09-14T20:13:59.039Z,3.60
2022-09-14T20:17:02.258Z,2.87
2022-09-14T20:20:05.609Z,2.90
2022-09-14T20:23:09.648Z,3.10
2022-09-14T20:26:14.434Z,3.27
2022-09-14T20:29:19.931Z,2.90
2022-09-14T20:32:22.788Z,3.43
2022-09-14T20:35:25.463Z,3.17
2022-09-14T20:38:30.049Z,3.40
2022-09-14T20:41:34.916Z,2.70
2022-09-14T20:44:37.825Z,2.83
2022-09-14T20:47:40.677Z,3.30
2022-09-14T20:50:52.707Z,3.80
2022-09-14T20:53:57.252Z,3.60
2022-09-14T20:57:04.076Z,3.40
2022-09-14T21:00:08.497Z,3.30
2022-09-14T21:03:11.929Z,3.80
2022-09-14T21:06:17.301Z,4.00
2022-09-14T21:09:24.471Z,4.37
2022-09-14T21:12:27.400Z,4.27
2022-09-14T21:15:30.173Z,4.03
2022-09-14T21:18:32.899Z,4.50
2022-09-14T21:21:35.974Z,4.40
2022-09-14T21:24:40.257Z,4.57
2022-09-14T21:27:43.011Z,4.40
2022-09-14T21:30:45.864Z,4.47
2022-09-14T21:33:50.322Z,4.20
2022-09-14T21:36:54.038Z,4.63
2022-09-14T21:39:58.847Z,4.70
2022-09-14T21:43:01.539Z,4.43
2022-09-14T21:46:05.131Z,4.67
2022-09-14T21:49:08.497Z,4.73
2022-09-14T21:52:11.195Z,5.23
2022-09-14T21:55:15.389Z,4.63
2022-09-14T21:58:18.124Z,5.10
2022-09-14T22:01:22.206Z,4.73
2022-09-14T22:04:26.257Z,4.43
2022-09-14T22:07:29.054Z,4.60
2022-09-14T22:10:36.153Z,5.43
2022-09-14T22:13:39.265Z,5.20
2022-09-14T22:16:42.942Z,5.33
2022-09-14T22:19:45.979Z,4.90
2022-09-14T22:22:48.726Z,4.63
2022-09-14T22:25:52.940Z,4.70
2022-09-14T22:28:56.567Z,4.60
2022-09-14T22:32:00.095Z,4.67
2022-09-14T22:35:03.415Z,4.20
2022-09-14T22:38:07.775Z,5.27
2022-09-14T22:41:14.450Z,5.00
2022-09-14T22:44:17.193Z,3.93
2022-09-14T22:47:20.582Z,3.83
2022-09-14T22:50:23.434Z,3.20
2022-09-14T22:53:27.369Z,3.40
2022-09-14T22:56:33.459Z,3.67
2022-09-14T22:59:36.537Z,3.40
2022-09-14T23:02:39.612Z,3.70
2022-09-14T23:05:50.226Z,3.90
2022-09-14T23:08:53.200Z,4.50
2022-09-14T23:11:57.217Z,5.20
2022-09-14T23:15:00.521Z,4.43
2022-09-14T23:18:03.593Z,4.83
2022-09-14T23:21:07.677Z,5.20
2022-09-14T23:24:11.644Z,4.97
2022-09-14T23:27:16.066Z,5.17
2022-09-14T23:30:18.847Z,5.30
2022-09-14T23:33:21.624Z,4.60
2022-09-14T23:36:25.189Z,5.03
2022-09-14T23:39:27.948Z,4.67
2022-09-14T23:42:32.343Z,4.67
2022-09-14T23:45:35.012Z,4.77
2022-09-14T23:48:39.039Z,5.10
2022-09-14T23:51:42.717Z,4.97
2022-09-14T23:54:45.582Z,4.93
2022-09-14T23:57:49.912Z,5.10
